createdAt,value
2023-04-07T00:01:57.573Z,10.75
2023-04-07T00:04:24.979Z,11.27
2023-04-07T00:06:52.111Z,10.63
2023-04-07T00:09:19.179Z,11.10
2023-04-07T00:11:46.176Z,10.85
2023-04-07T00:14:13.225Z,10.75
2023-04-07T00:16:40.599Z,10.95
2023-04-07T00:19:07.683Z,9.82
2023-04-07T00:21:34.709Z,10.70
2023-04-07T00:24:01.787Z,10.98
2023-04-07T00:26:34.283Z,10.35
2023-04-07T00:29:01.430Z,10.15
2023-04-07T00:31:28.497Z,10.10
2023-04-07T00:33:57.767Z,9.95
2023-04-07T00:36:27.144Z,10.10
2023-04-07T00:38:54.196Z,10.07
2023-04-07T00:41:21.170Z,10.02
2023-04-07T00:43:51.912Z,10.98
2023-04-07T00:46:24.156Z,10.38
2023-04-07T00:48:52.960Z,11.00
2023-04-07T00:51:23.004Z,9.60
2023-04-07T00:53:50.386Z,11.00
2023-04-07T00:56:17.741Z,10.25
2023-04-07T00:58:44.843Z,10.77
2023-04-07T01:01:30.948Z,9.88
2023-04-07T01:04:07.398Z,10.27
2023-04-07T01:06:40.549Z,10.32
2023-04-07T01:09:37.817Z,10.50
2023-04-07T01:12:58.807Z,10.23
2023-04-07T01:15:30.831Z,10.25
2023-04-07T01:18:11.326Z,9.35
2023-04-07T01:20:40.448Z,10.50
2023-04-07T01:23:08.827Z,10.63
2023-04-07T01:26:07.811Z,10.43
2023-04-07T01:29:00.998Z,10.52
2023-04-07T01:34:01.545Z,9.55
2023-04-07T01:36:32.167Z,10.88
2023-04-07T01:39:01.249Z,9.70
2023-04-07T01:41:31.098Z,9.40
2023-04-07T01:44:05.112Z,10.45
2023-04-07T01:46:43.904Z,10.88
2023-04-07T01:49:18.940Z,10.15
2023-04-07T01:51:52.738Z,10.07
2023-04-07T01:54:28.305Z,10.02
2023-04-07T01:56:58.549Z,10.30
2023-04-07T01:59:26.454Z,9.50
2023-04-07T02:01:58.332Z,10.15
2023-04-07T02:04:47.897Z,10.40
2023-04-07T02:07:24.908Z,10.95
2023-04-07T02:10:05.935Z,9.98
2023-04-07T02:12:37.301Z,9.77
2023-04-07T02:15:15.690Z,11.15
2023-04-07T02:17:51.220Z,9.65
2023-04-07T02:20:21.309Z,10.88
2023-04-07T02:22:48.614Z,10.35
2023-04-07T02:25:26.675Z,9.35
2023-04-07T02:27:56.512Z,10.20
2023-04-07T02:30:27.974Z,9.90
2023-04-07T02:32:57.640Z,9.40
2023-04-07T02:35:25.551Z,9.40
2023-04-07T02:37:52.729Z,9.32
2023-04-07T02:40:19.960Z,9.55
2023-04-07T02:42:47.655Z,9.80
2023-04-07T02:45:15.151Z,8.63
2023-04-07T02:47:43.498Z,8.18
2023-04-07T02:50:11.322Z,9.73
2023-04-07T02:52:38.800Z,9.35
2023-04-07T02:55:11.902Z,9.50
2023-04-07T02:57:39.771Z,8.77
2023-04-07T03:00:15.949Z,9.95
2023-04-07T03:03:11.658Z,9.45
2023-04-07T03:05:41.884Z,9.65
2023-04-07T03:08:12.821Z,9.18
2023-04-07T03:10:44.056Z,8.60
2023-04-07T03:13:16.525Z,8.75
2023-04-07T03:15:44.754Z,8.73
2023-04-07T03:18:12.813Z,9.13
2023-04-07T03:20:42.628Z,9.88
2023-04-07T03:23:11.777Z,8.93
2023-04-07T03:25:38.881Z,9.15
2023-04-07T03:28:06.873Z,8.48
2023-04-07T03:30:41.293Z,9.50
2023-04-07T03:33:16.610Z,8.93
2023-04-07T03:35:44.664Z,8.60
2023-04-07T03:38:13.721Z,8.95
2023-04-07T03:40:46.420Z,8.88
2023-04-07T03:43:15.780Z,8.95
2023-04-07T03:45:44.575Z,8.65
2023-04-07T03:48:12.423Z,8.50
2023-04-07T03:50:49.208Z,9.48
2023-04-07T03:53:21.695Z,10.45
2023-04-07T03:55:50.790Z,11.65
2023-04-07T03:58:27.245Z,14.60
2023-04-07T04:00:54.489Z,11.70
2023-04-07T04:03:25.122Z,12.85
2023-04-07T04:06:21.971Z,9.40
2023-04-07T04:08:50.200Z,9.02
2023-04-07T04:11:19.287Z,9.20
2023-04-07T04:13:56.291Z,8.65
2023-04-07T04:16:24.043Z,8.82
2023-04-07T04:18:53.504Z,8.15
2023-04-07T04:21:21.931Z,9.35
2023-04-07T04:23:49.243Z,8.90
2023-04-07T04:26:16.938Z,8.90
2023-04-07T04:28:45.596Z,8.57
2023-04-07T04:31:14.134Z,8.38
2023-04-07T04:33:44.408Z,8.63
2023-04-07T04:36:11.949Z,8.98
2023-04-07T04:38:39.323Z,7.82
2023-04-07T04:41:16.358Z,8.25
2023-04-07T04:43:44.207Z,7.78
2023-04-07T04:46:18.065Z,8.07
2023-04-07T04:48:49.179Z,7.30
2023-04-07T04:51:19.173Z,8.20
2023-04-07T04:53:50.513Z,8.00
2023-04-07T04:56:18.455Z,7.90
2023-04-07T04:58:48.860Z,8.50
2023-04-07T05:01:33.453Z,7.95
2023-04-07T05:04:10.576Z,7.68
2023-04-07T05:06:42.611Z,8.32
2023-04-07T05:09:12.478Z,8.75
2023-04-07T05:11:49.840Z,8.25
2023-04-07T05:14:16.990Z,8.50
2023-04-07T05:16:50.664Z,7.97
2023-04-07T05:19:21.548Z,7.95
2023-04-07T05:21:50.409Z,8.20
2023-04-07T05:24:19.887Z,7.90
2023-04-07T05:26:52.817Z,7.65
2023-04-07T05:29:20.063Z,7.57
2023-04-07T05:31:47.336Z,7.93
2023-04-07T05:34:16.273Z,8.45
2023-04-07T05:36:49.375Z,7.53
2023-04-07T05:39:16.929Z,7.90
2023-04-07T05:41:45.837Z,7.75
2023-04-07T05:44:14.906Z,7.78
2023-04-07T05:46:42.729Z,8.30
2023-04-07T05:49:19.740Z,8.23
2023-04-07T05:51:52.953Z,7.93
2023-04-07T05:54:20.910Z,7.60
2023-04-07T05:56:49.363Z,7.45
2023-04-07T05:59:17.033Z,7.60
2023-04-07T06:01:45.529Z,7.68
2023-04-07T06:04:12.763Z,7.60
2023-04-07T06:06:42.857Z,7.07
2023-04-07T06:09:10.441Z,7.82
2023-04-07T06:11:37.759Z,8.48
2023-04-07T06:14:04.842Z,7.68
2023-04-07T06:16:32.014Z,8.48
2023-04-07T06:18:59.090Z,7.75
2023-04-07T06:21:29.161Z,8.13
2023-04-07T06:23:56.402Z,7.65
2023-04-07T06:26:23.819Z,7.97
2023-04-07T06:28:51.139Z,8.68
2023-04-07T06:31:19.594Z,7.63
2023-04-07T06:33:47.230Z,8.32
2023-04-07T06:36:14.684Z,8.00
2023-04-07T06:38:41.979Z,8.02
2023-04-07T06:41:13.073Z,7.95
2023-04-07T06:43:41.016Z,8.80
2023-04-07T06:46:09.016Z,7.25
2023-04-07T06:48:36.379Z,6.63
2023-04-07T06:51:03.728Z,8.95
2023-04-07T06:53:31.272Z,8.13
2023-04-07T06:56:12.268Z,7.95
2023-04-07T06:58:40.517Z,8.38
2023-04-07T07:01:07.889Z,8.20
2023-04-07T07:03:35.276Z,7.68
2023-04-07T07:06:02.581Z,7.93
2023-04-07T07:08:31.199Z,7.70
2023-04-07T07:10:58.666Z,7.60
2023-04-07T07:13:32.152Z,8.23
2023-04-07T07:16:06.056Z,8.05
2023-04-07T07:18:41.922Z,8.05
2023-04-07T07:21:09.447Z,7.05
2023-04-07T07:23:37.756Z,7.18
2023-04-07T07:26:07.868Z,7.57
2023-04-07T07:28:38.365Z,7.22
2023-04-07T07:31:14.911Z,8.02
2023-04-07T07:33:46.616Z,6.93
2023-04-07T07:36:14.086Z,7.43
2023-04-07T07:38:51.674Z,11.55
2023-04-07T07:41:22.290Z,7.32
2023-04-07T07:43:49.738Z,7.40
2023-04-07T07:46:17.194Z,7.28
2023-04-07T07:48:44.636Z,7.35
2023-04-07T07:51:12.024Z,8.23
2023-04-07T07:53:39.217Z,7.28
2023-04-07T07:56:06.350Z,7.80
2023-04-07T07:58:37.400Z,8.05
2023-04-07T08:01:08.028Z,8.30
2023-04-07T08:03:55.300Z,7.78
2023-04-07T08:06:27.148Z,8.00
2023-04-07T08:08:57.634Z,7.47
2023-04-07T08:11:40.740Z,7.90
2023-04-07T08:14:09.788Z,8.63
2023-04-07T08:16:37.577Z,9.38
2023-04-07T08:19:05.405Z,8.27
2023-04-07T08:21:33.193Z,8.52
2023-04-07T08:24:01.220Z,7.43
2023-04-07T08:26:28.360Z,7.60
2023-04-07T08:28:56.228Z,8.32
2023-04-07T08:31:37.228Z,7.80
2023-04-07T08:34:12.761Z,8.25
2023-04-07T08:36:41.882Z,7.45
2023-04-07T08:39:31.029Z,8.05
2023-04-07T08:42:18.195Z,7.70
2023-04-07T08:44:53.334Z,8.80
2023-04-07T08:47:46.164Z,8.07
2023-04-07T08:50:53.218Z,8.48
2023-04-07T08:53:36.834Z,9.00
2023-04-07T08:56:12.176Z,8.27
2023-04-07T08:58:43.828Z,8.57
2023-04-07T09:01:12.333Z,8.43
2023-04-07T09:03:40.989Z,8.15
2023-04-07T09:06:10.999Z,8.77
2023-04-07T09:08:38.227Z,8.68
2023-04-07T09:11:05.516Z,9.13
2023-04-07T09:13:43.543Z,8.65
2023-04-07T09:16:23.547Z,8.48
2023-04-07T09:19:06.704Z,7.88
2023-04-07T09:21:56.395Z,7.47
2023-04-07T09:24:37.052Z,7.50
2023-04-07T09:27:19.876Z,8.60
2023-04-07T09:30:24.203Z,8.30
2023-04-07T09:32:56.223Z,8.25
2023-04-07T09:35:24.687Z,8.60
2023-04-07T09:38:11.230Z,7.60
2023-04-07T09:40:38.713Z,8.00
2023-04-07T09:43:07.311Z,6.93
2023-04-07T09:45:39.264Z,7.40
2023-04-07T09:48:20.603Z,6.82
2023-04-07T09:50:52.289Z,6.53
2023-04-07T09:53:20.687Z,6.43
2023-04-07T09:56:06.467Z,6.07
2023-04-07T09:58:33.940Z,6.03
2023-04-07T10:01:04.403Z,6.32
2023-04-07T10:03:34.269Z,6.25
2023-04-07T10:06:02.094Z,7.10
2023-04-07T10:08:32.623Z,6.88
2023-04-07T10:11:05.761Z,6.28
2023-04-07T10:13:39.313Z,6.00
2023-04-07T10:16:08.136Z,7.00
2023-04-07T10:18:37.376Z,6.30
2023-04-07T10:21:10.763Z,6.30
2023-04-07T10:23:51.619Z,5.88
2023-04-07T10:26:26.565Z,5.53
2023-04-07T10:29:03.268Z,5.57
2023-04-07T10:31:32.569Z,5.90
2023-04-07T10:34:01.514Z,4.90
2023-04-07T10:36:29.207Z,6.15
2023-04-07T10:39:08.621Z,5.47
2023-04-07T10:41:41.488Z,6.22
2023-04-07T10:44:40.767Z,5.80
2023-04-07T10:47:08.666Z,5.15
2023-04-07T10:49:36.598Z,5.45
2023-04-07T10:52:13.105Z,5.78
2023-04-07T10:54:41.502Z,6.03
2023-04-07T10:57:21.090Z,6.03
2023-04-07T11:00:11.575Z,6.13
2023-04-07T11:02:40.677Z,5.82
2023-04-07T11:05:08.968Z,5.15
2023-04-07T11:08:06.886Z,5.63
2023-04-07T11:10:37.349Z,5.43
2023-04-07T11:13:09.044Z,5.40
2023-04-07T11:15:40.225Z,5.53
2023-04-07T11:18:17.168Z,6.18
2023-04-07T11:20:49.384Z,5.85
2023-04-07T11:23:18.515Z,5.30
2023-04-07T11:25:49.056Z,5.35
2023-04-07T11:28:18.617Z,6.13
2023-04-07T11:30:54.431Z,6.22
2023-04-07T11:33:29.792Z,5.75
2023-04-07T11:36:04.990Z,5.38
2023-04-07T11:38:39.209Z,6.30
2023-04-07T11:41:15.497Z,6.60
2023-04-07T11:43:42.826Z,5.43
2023-04-07T11:46:17.191Z,6.07
2023-04-07T11:48:45.751Z,6.60
2023-04-07T11:51:19.240Z,6.30
2023-04-07T11:53:47.979Z,6.25
2023-04-07T11:56:17.617Z,4.75
2023-04-07T11:58:55.447Z,5.68
2023-04-07T12:01:24.804Z,6.25
2023-04-07T12:04:04.405Z,5.75
2023-04-07T12:06:35.633Z,5.72
2023-04-07T12:09:04.153Z,6.13
2023-04-07T12:11:32.949Z,6.13
2023-04-07T12:14:01.385Z,5.85
2023-04-07T12:16:29.075Z,6.65
2023-04-07T12:18:58.657Z,6.32
2023-04-07T12:21:26.798Z,6.63
2023-04-07T12:23:54.011Z,6.35
2023-04-07T12:26:23.385Z,6.05
2023-04-07T12:28:50.715Z,6.53
2023-04-07T12:31:17.799Z,6.18
2023-04-07T12:35:06.134Z,6.15
2023-04-07T12:37:33.346Z,7.28
2023-04-07T12:40:00.592Z,7.35
2023-04-07T12:42:28.967Z,6.95
2023-04-07T12:44:56.706Z,7.03
2023-04-07T12:47:23.972Z,7.00
2023-04-07T12:49:51.149Z,6.82
2023-04-07T12:52:18.882Z,7.13
2023-04-07T12:54:46.722Z,6.03
2023-04-07T12:57:13.935Z,6.47
2023-04-07T12:59:41.267Z,7.38
2023-04-07T13:02:09.934Z,8.07
2023-04-07T13:04:40.742Z,7.72
2023-04-07T13:07:09.668Z,8.60
2023-04-07T13:09:38.981Z,8.10
2023-04-07T13:12:06.111Z,8.00
2023-04-07T13:14:33.145Z,8.15
2023-04-07T13:17:00.400Z,8.13
2023-04-07T13:19:29.748Z,7.65
2023-04-07T13:21:57.160Z,7.63
2023-04-07T13:24:25.069Z,7.70
2023-04-07T13:26:52.691Z,7.72
2023-04-07T13:29:19.981Z,7.78
2023-04-07T13:31:48.478Z,7.65
2023-04-07T13:34:16.121Z,8.02
2023-04-07T13:36:44.418Z,7.97
2023-04-07T13:39:12.212Z,7.60
2023-04-07T13:41:39.226Z,8.00
2023-04-07T13:44:06.604Z,7.50
2023-04-07T13:46:34.006Z,7.15
2023-04-07T13:49:01.085Z,6.78
2023-04-07T13:51:28.247Z,7.38
2023-04-07T13:53:55.488Z,7.30
2023-04-07T13:56:22.578Z,7.38
2023-04-07T13:58:49.600Z,7.10
2023-04-07T14:01:17.382Z,7.30
2023-04-07T14:03:45.206Z,6.30
2023-04-07T14:06:12.511Z,6.80
2023-04-07T14:08:39.896Z,7.50
2023-04-07T14:11:07.028Z,7.55
2023-04-07T14:13:34.175Z,6.80
2023-04-07T14:16:01.222Z,7.50
2023-04-07T14:18:30.224Z,6.65
2023-04-07T14:20:57.383Z,7.32
2023-04-07T14:23:36.498Z,6.88
2023-04-07T14:26:05.095Z,7.30
2023-04-07T14:28:32.211Z,6.43
2023-04-07T14:30:59.539Z,7.78
2023-04-07T14:33:27.123Z,7.13
2023-04-07T14:35:54.248Z,7.05
2023-04-07T14:38:25.856Z,7.63
2023-04-07T14:40:53.332Z,7.03
2023-04-07T14:43:20.691Z,7.57
2023-04-07T14:45:51.077Z,8.27
2023-04-07T14:48:18.549Z,8.35
2023-04-07T14:50:46.152Z,8.65
2023-04-07T14:53:16.371Z,8.35
2023-04-07T14:55:43.543Z,8.32
2023-04-07T14:58:11.635Z,7.32
2023-04-07T15:00:38.756Z,7.97
2023-04-07T15:03:06.061Z,7.90
2023-04-07T15:05:33.476Z,7.75
2023-04-07T15:08:01.327Z,8.27
2023-04-07T15:10:35.850Z,7.85
2023-04-07T15:13:03.293Z,7.82
2023-04-07T15:15:30.557Z,7.38
2023-04-07T15:17:57.886Z,8.02
2023-04-07T15:20:25.261Z,7.97
2023-04-07T15:22:55.860Z,6.70
2023-04-07T15:25:25.907Z,8.10
2023-04-07T15:27:52.988Z,7.32
2023-04-07T15:30:20.776Z,8.43
2023-04-07T15:32:59.249Z,8.25
2023-04-07T15:35:30.046Z,7.60
2023-04-07T15:37:57.463Z,6.80
2023-04-07T15:40:24.611Z,7.35
2023-04-07T15:42:51.933Z,8.63
2023-04-07T15:45:19.025Z,9.05
2023-04-07T15:47:46.254Z,8.02
2023-04-07T15:50:13.693Z,8.75
2023-04-07T15:52:40.767Z,8.18
2023-04-07T15:55:08.616Z,8.38
2023-04-07T15:57:35.678Z,8.50
2023-04-07T16:00:05.970Z,8.77
2023-04-07T16:02:33.466Z,8.85
2023-04-07T16:05:00.708Z,7.10
2023-04-07T16:07:30.696Z,9.00
2023-04-07T16:09:57.845Z,9.30
2023-04-07T16:12:25.290Z,9.07
2023-04-07T16:14:55.327Z,9.45
2023-04-07T16:17:22.634Z,9.10
2023-04-07T16:19:49.782Z,8.77
2023-04-07T16:22:17.246Z,9.27
2023-04-07T16:24:44.666Z,9.73
2023-04-07T16:27:12.042Z,9.63
2023-04-07T16:29:39.071Z,8.95
2023-04-07T16:32:06.903Z,10.15
2023-04-07T16:34:35.392Z,9.80
2023-04-07T16:37:02.682Z,9.40
2023-04-07T16:39:29.806Z,8.80
2023-04-07T16:41:56.883Z,9.35
2023-04-07T16:44:23.949Z,9.00
2023-04-07T16:46:52.800Z,9.00
2023-04-07T16:49:19.840Z,9.40
2023-04-07T16:51:46.872Z,9.82
2023-04-07T16:54:17.192Z,8.77
2023-04-07T16:56:44.278Z,9.32
2023-04-07T16:59:11.446Z,8.70
2023-04-07T17:01:42.022Z,8.70
2023-04-07T17:04:09.385Z,10.40
2023-04-07T17:06:36.588Z,8.43
2023-04-07T17:09:07.367Z,8.80
2023-04-07T17:11:34.443Z,8.90
2023-04-07T17:14:01.826Z,6.85
2023-04-07T17:16:29.036Z,7.43
2023-04-07T17:18:56.936Z,7.63
2023-04-07T17:21:23.992Z,7.05
2023-04-07T17:23:51.748Z,8.40
2023-04-07T17:26:19.118Z,7.63
2023-04-07T17:28:46.541Z,6.60
2023-04-07T17:31:14.112Z,7.70
2023-04-07T17:33:42.374Z,7.97
2023-04-07T17:36:09.500Z,7.82
2023-04-07T17:38:36.584Z,8.90
2023-04-07T17:41:04.442Z,7.78
2023-04-07T17:43:31.802Z,8.68
2023-04-07T17:46:00.232Z,7.50
2023-04-07T17:48:27.766Z,8.30
2023-04-07T17:50:54.841Z,8.25
2023-04-07T17:53:21.837Z,9.63
2023-04-07T17:55:49.896Z,8.65
2023-04-07T17:58:21.032Z,8.77
2023-04-07T18:00:57.991Z,9.20
2023-04-07T18:03:25.686Z,9.30
2023-04-07T18:05:53.409Z,8.05
2023-04-07T18:08:21.081Z,8.40
2023-04-07T18:10:48.153Z,7.95
2023-04-07T18:13:15.588Z,9.63
2023-04-07T18:15:44.316Z,8.88
2023-04-07T18:18:11.511Z,8.13
2023-04-07T18:20:38.539Z,8.45
2023-04-07T18:23:06.181Z,8.82
2023-04-07T18:25:33.271Z,8.07
2023-04-07T18:28:02.001Z,9.43
2023-04-07T18:30:29.035Z,8.55
2023-04-07T18:32:56.332Z,8.00
2023-04-07T18:35:23.650Z,7.85
2023-04-07T18:37:50.991Z,8.35
2023-04-07T18:40:18.066Z,8.02
2023-04-07T18:42:45.273Z,9.57
2023-04-07T18:45:14.936Z,10.07
2023-04-07T18:47:45.338Z,10.13
2023-04-07T18:50:12.408Z,9.95
2023-04-07T18:52:39.812Z,10.75
2023-04-07T18:55:08.957Z,10.57
2023-04-07T18:57:36.114Z,14.43
2023-04-07T19:00:04.076Z,11.07
2023-04-07T19:02:31.404Z,12.30
2023-04-07T19:04:59.093Z,12.23
2023-04-07T19:07:26.605Z,10.35
2023-04-07T19:09:53.936Z,11.60
2023-04-07T19:12:21.200Z,11.75
2023-04-07T19:14:48.451Z,12.98
2023-04-07T19:17:15.793Z,16.05
2023-04-07T19:19:42.887Z,14.63
2023-04-07T19:22:10.986Z,13.60
2023-04-07T19:24:39.466Z,13.02
2023-04-07T19:27:06.948Z,14.13
2023-04-07T19:29:38.093Z,13.82
2023-04-07T19:32:05.989Z,13.45
2023-04-07T19:34:39.232Z,13.40
2023-04-07T19:37:06.779Z,14.15
2023-04-07T19:39:35.422Z,14.73
2023-04-07T19:42:02.471Z,14.23
2023-04-07T19:44:29.537Z,11.27
2023-04-07T19:46:57.322Z,13.50
2023-04-07T19:49:24.429Z,13.23
2023-04-07T19:51:54.092Z,13.77
2023-04-07T19:54:22.832Z,13.32
2023-04-07T19:56:49.951Z,13.25
2023-04-07T19:59:16.889Z,13.20
2023-04-07T20:01:44.012Z,13.27
2023-04-07T20:04:11.478Z,13.48
2023-04-07T20:06:40.540Z,13.50
2023-04-07T20:09:07.558Z,13.57
2023-04-07T20:11:34.569Z,12.82
2023-04-07T20:14:01.661Z,12.90
2023-04-07T20:16:34.304Z,13.82
2023-04-07T20:19:01.724Z,12.27
2023-04-07T20:21:28.932Z,12.70
2023-04-07T20:23:56.450Z,12.45
2023-04-07T20:26:23.544Z,13.18
2023-04-07T20:28:51.154Z,11.38
2023-04-07T20:31:19.385Z,10.13
2023-04-07T20:33:46.551Z,12.18
2023-04-07T20:36:13.675Z,10.30
2023-04-07T20:38:43.958Z,11.90
2023-04-07T20:41:16.872Z,10.52
2023-04-07T20:43:43.985Z,9.85
2023-04-07T20:46:11.421Z,9.82
2023-04-07T20:48:38.982Z,8.90
2023-04-07T20:51:06.879Z,9.48
2023-04-07T20:53:34.550Z,10.27
2023-04-07T20:56:02.998Z,9.68
2023-04-07T20:58:30.324Z,9.68
2023-04-07T21:01:01.507Z,9.23
2023-04-07T21:03:30.888Z,9.02
2023-04-07T21:05:58.345Z,8.52
2023-04-07T21:08:25.688Z,9.80
2023-04-07T21:10:53.446Z,8.93
2023-04-07T21:13:22.356Z,9.68
2023-04-07T21:15:49.441Z,9.00
2023-04-07T21:18:19.186Z,8.43
2023-04-07T21:20:47.312Z,8.63
2023-04-07T21:23:14.372Z,9.32
2023-04-07T21:25:41.502Z,9.70
2023-04-07T21:28:09.463Z,9.25
2023-04-07T21:30:41.941Z,8.55
2023-04-07T21:35:36.054Z,8.75
2023-04-07T21:38:03.404Z,8.60
2023-04-07T21:40:30.479Z,8.10
2023-04-07T21:42:57.807Z,8.90
2023-04-07T21:45:26.914Z,8.75
2023-04-07T21:47:54.064Z,8.45
2023-04-07T21:50:21.159Z,9.00
2023-04-07T21:52:51.230Z,9.13
2023-04-07T21:55:21.205Z,8.82
2023-04-07T21:57:48.484Z,10.35
2023-04-07T22:00:16.540Z,9.77
2023-04-07T22:02:45.693Z,9.98
2023-04-07T22:05:13.154Z,10.52
2023-04-07T22:07:40.811Z,10.73
2023-04-07T22:10:09.707Z,10.00
2023-04-07T22:12:36.849Z,10.68
2023-04-07T22:15:04.457Z,10.80
2023-04-07T22:17:31.523Z,11.40
2023-04-07T22:19:58.853Z,12.07
2023-04-07T22:22:29.636Z,10.18
2023-04-07T22:24:56.743Z,10.88
2023-04-07T22:27:23.738Z,11.68
2023-04-07T22:29:51.292Z,10.00
2023-04-07T22:32:18.512Z,10.48
2023-04-07T22:34:46.731Z,11.30
2023-04-07T22:37:14.098Z,10.57
2023-04-07T22:39:43.888Z,10.27
2023-04-07T22:42:11.162Z,9.77
2023-04-07T22:44:38.494Z,11.15
2023-04-07T22:47:05.729Z,12.35
2023-04-07T22:49:33.161Z,11.95
2023-04-07T22:52:00.368Z,11.52
2023-04-07T22:54:27.799Z,12.82
2023-04-07T22:56:55.261Z,14.05
2023-04-07T22:59:25.419Z,14.32
2023-04-07T23:01:52.569Z,13.23
2023-04-07T23:04:21.527Z,14.63
2023-04-07T23:06:48.769Z,13.73
2023-04-07T23:09:16.326Z,13.98
2023-04-07T23:11:47.275Z,13.93
2023-04-07T23:14:15.057Z,13.90
2023-04-07T23:16:42.112Z,13.80
2023-04-07T23:19:15.391Z,14.13
2023-04-07T23:21:43.440Z,14.20
2023-04-07T23:24:10.902Z,13.80
2023-04-07T23:26:38.249Z,14.88
2023-04-07T23:29:09.341Z,14.43
2023-04-07T23:31:36.451Z,13.80
2023-04-07T23:34:04.509Z,15.52
2023-04-07T23:36:31.669Z,16.23
2023-04-07T23:38:58.851Z,15.15
2023-04-07T23:41:26.045Z,14.85
2023-04-07T23:43:53.060Z,15.13
2023-04-07T23:46:21.455Z,15.45
2023-04-07T23:48:49.334Z,14.23
2023-04-07T23:51:16.813Z,14.63
2023-04-07T23:53:43.883Z,16.58
2023-04-07T23:56:11.111Z,15.10
2023-04-07T23:58:38.163Z,13.60
